Time;durP1;ratioP1;P1;durP2;ratioP2;P2;SDS_P1;SDS_P2;PMS_P1;PMS_P2;Temp;Humidity;BMP_temperature;BMP_pressure;BME280_temperature;BME280_humidity;BME280_pressure;Samples;Min_cycle;Max_cycle;Signal;HPM_P1;HPM_P2
2022/03/07 00:00:09;;;;;;;5.80;4.22;;;1.10;99.90;;;;;;5043488;28;20401;-73
2022/03/07 00:02:35;;;;;;;6.78;4.50;;;1.00;99.90;;;;;;4347894;28;10001083;-72
2022/03/07 00:05:01;;;;;;;6.25;4.68;;;1.00;99.90;;;;;;5023054;28;20485;-73
2022/03/07 00:07:27;;;;;;;10.90;5.30;;;1.00;99.90;;;;;;5032303;28;20083;-73
2022/03/07 00:09:52;;;;;;;7.47;5.25;;;1.00;99.90;;;;;;5025620;28;20053;-73
2022/03/07 00:12:18;;;;;;;7.50;4.80;;;1.00;99.90;;;;;;5027742;28;20040;-72
2022/03/07 00:14:43;;;;;;;7.78;5.22;;;1.00;99.90;;;;;;5035642;28;20455;-72
2022/03/07 00:17:09;;;;;;;6.32;4.75;;;1.00;99.90;;;;;;5024095;28;20022;-71
2022/03/07 00:19:34;;;;;;;7.25;5.05;;;1.10;99.90;;;;;;5023593;28;20709;-72
2022/03/07 00:22:00;;;;;;;6.32;4.65;;;1.00;99.90;;;;;;5026647;28;20083;-72
2022/03/07 00:24:26;;;;;;;8.63;4.90;;;1.10;99.90;;;;;;5023576;28;20041;-71
2022/03/07 00:26:51;;;;;;;7.07;4.80;;;1.00;99.90;;;;;;5033431;28;20025;-71
2022/03/07 00:29:17;;;;;;;6.35;4.70;;;1.10;99.90;;;;;;5031244;28;20050;-71
2022/03/07 00:31:44;;;;;;;5.57;4.30;;;1.10;99.90;;;;;;5029091;28;20733;-72
2022/03/07 00:34:09;;;;;;;6.57;4.35;;;1.10;99.90;;;;;;5038391;28;20049;-72
2022/03/07 00:36:35;;;;;;;6.28;4.72;;;1.10;99.90;;;;;;5036359;28;20036;-72
2022/03/07 00:39:01;;;;;;;6.00;4.75;;;1.00;99.90;;;;;;5032640;28;20032;-71
2022/03/07 00:41:26;;;;;;;7.40;4.75;;;1.00;99.90;;;;;;5040847;28;20039;-71
2022/03/07 00:43:52;;;;;;;5.57;4.68;;;1.00;99.90;;;;;;5035708;28;20114;-71
2022/03/07 00:46:17;;;;;;;5.50;4.53;;;0.90;99.90;;;;;;5041907;28;20025;-71
2022/03/07 00:48:43;;;;;;;6.97;4.40;;;0.90;99.90;;;;;;5026962;28;20032;-71
2022/03/07 00:51:09;;;;;;;5.28;4.10;;;0.90;99.90;;;;;;5035477;28;20025;-72
2022/03/07 00:53:34;;;;;;;5.30;4.18;;;0.80;99.90;;;;;;5038275;28;20155;-71
2022/03/07 00:56:00;;;;;;;7.85;4.68;;;0.60;99.90;;;;;;5039956;28;20706;-72
2022/03/07 00:58:25;;;;;;;5.82;4.18;;;0.60;99.90;;;;;;5027916;28;20036;-71
2022/03/07 01:00:51;;;;;;;5.80;3.95;;;0.50;99.90;;;;;;5041126;28;20487;-72
2022/03/07 01:03:18;;;;;;;4.80;3.90;;;0.40;99.90;;;;;;5037629;28;20111;-72
2022/03/07 01:05:44;;;;;;;6.10;4.30;;;0.40;99.90;;;;;;5045476;28;20045;-71
2022/03/07 01:08:10;;;;;;;7.88;4.40;;;0.40;99.90;;;;;;5040404;28;20033;-72
2022/03/07 01:10:36;;;;;;;6.78;5.13;;;0.50;99.90;;;;;;5036014;28;20086;-72
2022/03/07 01:13:02;;;;;;;6.88;4.97;;;0.50;99.90;;;;;;5038094;28;20041;-72
2022/03/07 01:15:28;;;;;;;7.10;4.97;;;0.70;99.90;;;;;;5045464;28;20029;-71
2022/03/07 01:17:54;;;;;;;8.00;5.10;;;0.70;99.90;;;;;;5040376;28;20056;-71
2022/03/07 01:20:21;;;;;;;6.55;4.90;;;0.80;99.90;;;;;;5037206;28;20037;-72
2022/03/07 01:22:47;;;;;;;6.93;4.93;;;0.80;99.90;;;;;;5031513;28;20025;-71
2022/03/07 01:25:14;;;;;;;9.63;4.80;;;0.90;99.90;;;;;;5036881;28;20058;-72
2022/03/07 01:27:40;;;;;;;7.40;5.18;;;0.90;99.90;;;;;;5037937;28;20128;-72
2022/03/07 01:30:07;;;;;;;6.13;4.88;;;0.90;99.90;;;;;;5039657;28;20022;-71
2022/03/07 01:32:33;;;;;;;8.73;4.93;;;0.90;99.90;;;;;;5029278;28;20069;-71
2022/03/07 01:34:58;;;;;;;6.25;5.15;;;0.90;99.90;;;;;;5035671;28;20030;-72
2022/03/07 01:37:24;;;;;;;8.75;5.18;;;0.90;99.90;;;;;;5033424;28;20049;-71
2022/03/07 01:39:49;;;;;;;6.72;4.70;;;1.00;99.90;;;;;;5042160;28;20044;-72
2022/03/07 01:42:15;;;;;;;7.13;5.40;;;1.00;99.90;;;;;;5036360;28;20203;-72
2022/03/07 01:44:41;;;;;;;8.38;5.05;;;0.90;99.90;;;;;;5035208;28;20049;-72
2022/03/07 01:47:07;;;;;;;6.97;4.88;;;0.90;99.90;;;;;;5044632;28;20392;-71
2022/03/07 01:49:33;;;;;;;7.30;5.00;;;0.90;99.90;;;;;;5043945;28;20109;-72
2022/03/07 01:51:59;;;;;;;6.90;5.05;;;0.90;99.90;;;;;;5041801;28;20029;-72
2022/03/07 01:54:25;;;;;;;10.77;5.40;;;0.90;99.90;;;;;;5042678;28;20456;-71
2022/03/07 01:56:52;;;;;;;6.20;4.93;;;0.90;99.90;;;;;;5044073;28;20029;-72
2022/03/07 01:59:26;;;;;;;7.15;5.20;;;0.90;99.90;;;;;;5042480;28;20110;-71
2022/03/07 02:01:52;;;;;;;9.35;5.30;;;0.90;99.90;;;;;;5037942;28;20104;-71
2022/03/07 02:04:18;;;;;;;7.10;5.00;;;1.00;99.90;;;;;;5038851;28;20039;-71
2022/03/07 02:06:45;;;;;;;6.90;5.10;;;0.90;99.90;;;;;;5033059;28;20033;-72
2022/03/07 02:09:11;;;;;;;6.93;5.30;;;0.90;99.90;;;;;;5033691;28;20049;-71
2022/03/07 02:11:38;;;;;;;7.30;5.20;;;0.90;99.90;;;;;;5039170;28;20128;-70
2022/03/07 02:14:14;;;;;;;8.00;5.82;;;0.90;99.90;;;;;;5044380;28;20485;-71
2022/03/07 02:16:41;;;;;;;7.38;5.10;;;1.00;99.90;;;;;;5044931;28;20048;-72
2022/03/07 02:19:07;;;;;;;7.60;5.13;;;0.90;99.90;;;;;;5045552;28;20508;-71
2022/03/07 02:21:35;;;;;;;8.13;5.40;;;0.90;99.90;;;;;;5041276;28;20067;-72
2022/03/07 02:24:02;;;;;;;8.63;5.40;;;0.90;99.90;;;;;;5029761;28;20440;-72
2022/03/07 02:26:28;;;;;;;6.88;5.38;;;0.90;99.90;;;;;;5043589;28;20056;-71
2022/03/07 02:28:53;;;;;;;9.70;5.28;;;0.90;99.90;;;;;;5044097;28;20139;-72
2022/03/07 02:31:20;;;;;;;6.30;5.30;;;0.90;99.90;;;;;;5037094;28;20540;-72
2022/03/07 02:33:47;;;;;;;7.78;5.30;;;0.90;99.90;;;;;;5040833;28;20636;-71
2022/03/07 02:36:13;;;;;;;7.88;5.70;;;0.90;99.90;;;;;;5041510;28;20037;-71
2022/03/07 02:38:39;;;;;;;7.75;5.85;;;0.80;99.90;;;;;;5038681;28;20541;-71
2022/03/07 02:41:04;;;;;;;7.03;5.25;;;0.90;99.90;;;;;;5038561;28;20025;-71
2022/03/07 02:43:30;;;;;;;6.82;5.10;;;0.80;99.90;;;;;;5041432;28;20195;-72
2022/03/07 02:45:58;;;;;;;9.30;5.65;;;0.90;99.90;;;;;;5035752;28;20041;-71
2022/03/07 02:48:24;;;;;;;7.75;5.38;;;0.80;99.90;;;;;;5043661;28;20576;-72
2022/03/07 02:50:50;;;;;;;9.13;5.78;;;0.80;99.90;;;;;;5047204;28;20033;-71
2022/03/07 02:53:17;;;;;;;7.13;5.53;;;0.80;99.90;;;;;;5036466;28;20158;-71
2022/03/07 02:55:42;;;;;;;7.38;5.38;;;0.90;99.90;;;;;;5044830;28;20556;-72
2022/03/07 02:58:08;;;;;;;6.97;5.22;;;0.80;99.90;;;;;;5037434;28;20033;-71
2022/03/07 03:00:34;;;;;;;9.52;5.78;;;0.80;99.90;;;;;;5035586;28;20060;-72
2022/03/07 03:02:59;;;;;;;7.53;5.78;;;0.80;99.90;;;;;;5038662;28;20096;-72
2022/03/07 03:05:25;;;;;;;6.90;5.30;;;0.80;99.90;;;;;;5045428;28;20036;-71
2022/03/07 03:07:51;;;;;;;9.40;5.75;;;0.80;99.90;;;;;;5049705;28;20032;-71
2022/03/07 03:10:18;;;;;;;7.63;5.53;;;0.80;99.90;;;;;;5041853;28;20041;-71
2022/03/07 03:12:45;;;;;;;9.85;5.85;;;0.80;99.90;;;;;;5030921;28;20235;-71
2022/03/07 03:15:11;;;;;;;7.50;5.80;;;0.90;99.90;;;;;;5035184;28;20035;-71
2022/03/07 03:17:44;;;;;;;8.70;6.28;;;0.80;99.90;;;;;;5040204;28;20033;-71
2022/03/07 03:20:11;;;;;;;12.15;6.13;;;0.80;99.90;;;;;;5040532;28;20540;-72
2022/03/07 03:22:41;;;;;;;9.52;6.10;;;0.80;99.90;;;;;;5031551;28;20037;-71
2022/03/07 03:25:07;;;;;;;16.88;6.40;;;0.90;99.90;;;;;;5040970;28;20040;-72
2022/03/07 03:27:34;;;;;;;7.18;5.95;;;0.80;99.90;;;;;;5041466;28;20485;-72
2022/03/07 03:30:00;;;;;;;10.90;6.07;;;0.80;99.90;;;;;;5035957;28;20053;-71
2022/03/07 03:32:26;;;;;;;10.43;5.75;;;0.80;99.90;;;;;;5039710;28;20110;-71
2022/03/07 03:34:53;;;;;;;9.10;6.15;;;0.80;99.90;;;;;;5039038;28;20044;-71
2022/03/07 03:37:18;;;;;;;7.30;5.47;;;0.80;99.90;;;;;;5041589;28;20040;-72
2022/03/07 03:39:44;;;;;;;8.20;5.72;;;0.80;99.90;;;;;;5037741;28;20477;-71
2022/03/07 03:42:10;;;;;;;7.43;5.30;;;0.80;99.90;;;;;;5033610;28;20104;-71
2022/03/07 03:44:35;;;;;;;7.63;5.57;;;0.80;99.90;;;;;;5036739;28;20049;-72
2022/03/07 03:47:01;;;;;;;8.18;5.57;;;0.80;99.90;;;;;;5041065;28;20033;-72
2022/03/07 03:49:29;;;;;;;7.85;5.65;;;0.80;99.90;;;;;;5035023;28;20492;-71
2022/03/07 03:51:56;;;;;;;7.65;5.70;;;0.80;99.90;;;;;;5036641;28;20044;-72
2022/03/07 03:54:22;;;;;;;7.63;6.00;;;0.80;99.90;;;;;;5041201;28;20047;-71
2022/03/07 03:56:48;;;;;;;8.63;6.15;;;0.80;99.90;;;;;;5042268;28;20047;-72
2022/03/07 03:59:14;;;;;;;6.40;5.53;;;0.90;99.90;;;;;;5027693;28;20040;-71
2022/03/07 04:01:40;;;;;;;8.48;5.85;;;0.80;99.90;;;;;;5032058;28;20388;-71
2022/03/07 04:04:05;;;;;;;8.52;6.00;;;0.90;99.90;;;;;;5040834;28;20488;-71
2022/03/07 04:06:31;;;;;;;8.07;5.40;;;0.90;99.90;;;;;;5042403;28;20107;-71
2022/03/07 04:08:56;;;;;;;7.53;5.75;;;0.90;99.90;;;;;;5031760;28;20440;-72
2022/03/07 04:11:22;;;;;;;9.32;5.47;;;0.90;99.90;;;;;;5043398;28;20036;-72
2022/03/07 04:13:47;;;;;;;6.78;5.43;;;0.90;99.90;;;;;;5041575;28;20021;-72
2022/03/07 04:16:14;;;;;;;9.07;5.28;;;0.90;99.90;;;;;;5039530;28;20034;-71
2022/03/07 04:18:40;;;;;;;10.13;5.80;;;0.90;99.90;;;;;;5042739;28;20047;-71
2022/03/07 04:21:06;;;;;;;8.15;5.65;;;1.00;99.90;;;;;;5038998;28;20029;-71
2022/03/07 04:23:31;;;;;;;8.73;5.65;;;0.90;99.90;;;;;;5036950;28;20113;-71
2022/03/07 04:25:57;;;;;;;8.95;5.60;;;1.00;99.90;;;;;;5042836;28;20599;-71
2022/03/07 04:28:23;;;;;;;9.30;5.65;;;1.00;99.90;;;;;;5027682;28;20030;-71
2022/03/07 04:30:48;;;;;;;8.52;5.45;;;1.00;99.90;;;;;;5043619;28;20115;-71
2022/03/07 04:33:14;;;;;;;8.55;5.15;;;1.00;99.90;;;;;;5040809;28;20038;-72
2022/03/07 04:35:39;;;;;;;10.23;5.72;;;1.00;99.90;;;;;;5041174;28;20032;-71
2022/03/07 04:38:05;;;;;;;7.85;5.53;;;1.00;99.90;;;;;;5035205;28;20443;-71
2022/03/07 04:40:31;;;;;;;7.80;5.43;;;1.00;99.90;;;;;;5045095;28;20453;-72
2022/03/07 04:42:56;;;;;;;9.02;5.35;;;1.10;99.90;;;;;;5039458;28;20451;-71
2022/03/07 04:45:23;;;;;;;7.38;4.78;;;1.10;99.90;;;;;;5046229;28;20056;-71
2022/03/07 04:47:48;;;;;;;6.85;5.40;;;1.10;99.90;;;;;;5033221;28;20037;-71
2022/03/07 04:50:15;;;;;;;8.02;5.60;;;1.10;99.90;;;;;;5034408;28;20788;-71
2022/03/07 04:52:44;;;;;;;6.93;5.38;;;1.10;99.90;;;;;;5040990;28;20346;-71
2022/03/07 04:55:12;;;;;;;6.70;5.05;;;1.10;99.90;;;;;;5037390;28;20057;-72
2022/03/07 04:57:38;;;;;;;8.77;5.15;;;1.10;99.90;;;;;;5037195;28;20091;-71
2022/03/07 05:00:06;;;;;;;8.23;5.15;;;1.00;99.90;;;;;;5043476;28;20123;-72
2022/03/07 05:02:32;;;;;;;6.68;4.95;;;1.00;99.90;;;;;;5044415;28;20147;-71
2022/03/07 05:04:58;;;;;;;9.35;5.50;;;1.00;99.90;;;;;;5039670;28;20029;-71
2022/03/07 05:07:24;;;;;;;8.73;5.63;;;1.00;99.90;;;;;;5042815;28;20032;-71
2022/03/07 05:09:50;;;;;;;8.82;5.90;;;1.00;99.90;;;;;;5035702;28;20082;-72
2022/03/07 05:12:15;;;;;;;9.13;5.78;;;1.00;99.90;;;;;;5044615;28;20041;-71
2022/03/07 05:14:41;;;;;;;8.32;5.72;;;1.00;99.90;;;;;;5039162;28;20515;-72
2022/03/07 05:17:07;;;;;;;7.28;5.32;;;1.00;99.90;;;;;;5043897;28;20588;-71
2022/03/07 05:19:32;;;;;;;7.32;5.47;;;1.00;99.90;;;;;;5041845;28;20120;-71
2022/03/07 05:21:58;;;;;;;7.07;5.90;;;1.00;99.90;;;;;;5039818;28;20037;-71
2022/03/07 05:24:23;;;;;;;10.45;5.90;;;1.00;99.90;;;;;;5039717;28;20047;-74
2022/03/07 05:26:49;;;;;;;7.80;5.82;;;1.00;99.90;;;;;;5037058;28;20029;-73
2022/03/07 05:29:15;;;;;;;11.27;5.72;;;1.00;99.90;;;;;;5036525;28;20052;-74
2022/03/07 05:31:40;;;;;;;9.23;6.10;;;1.00;99.90;;;;;;5037712;28;20378;-73
2022/03/07 05:34:06;;;;;;;10.10;5.53;;;1.00;99.90;;;;;;5037228;28;20120;-73
2022/03/07 05:36:32;;;;;;;8.57;5.78;;;1.00;99.90;;;;;;5044340;28;20028;-73
2022/03/07 05:38:57;;;;;;;7.88;5.75;;;1.00;99.90;;;;;;5034393;28;20410;-73
2022/03/07 05:41:23;;;;;;;8.52;5.85;;;1.00;99.90;;;;;;5037615;28;20565;-73
2022/03/07 05:43:49;;;;;;;9.20;6.35;;;1.00;99.90;;;;;;5041274;28;20057;-73
2022/03/07 05:46:14;;;;;;;9.05;6.28;;;1.00;99.90;;;;;;5039175;28;20053;-73
2022/03/07 05:48:40;;;;;;;11.77;6.10;;;1.00;99.90;;;;;;5037843;28;20105;-73
2022/03/07 05:51:06;;;;;;;10.27;5.45;;;1.00;99.90;;;;;;5034581;28;20455;-73
2022/03/07 05:53:31;;;;;;;7.85;5.57;;;1.00;99.90;;;;;;5036455;28;20062;-73
2022/03/07 05:55:57;;;;;;;10.90;5.70;;;0.90;99.90;;;;;;5041595;28;20024;-73
2022/03/07 05:58:22;;;;;;;9.02;6.20;;;1.00;99.90;;;;;;5044762;28;20027;-73
2022/03/07 06:00:48;;;;;;;7.68;5.63;;;0.90;99.90;;;;;;5040536;28;20025;-73
2022/03/07 06:03:14;;;;;;;11.38;6.57;;;1.00;99.90;;;;;;5034736;28;20033;-73
2022/03/07 06:05:40;;;;;;;11.45;6.20;;;0.90;99.90;;;;;;5038458;28;20037;-73
2022/03/07 06:08:06;;;;;;;11.75;5.93;;;0.90;99.90;;;;;;5037951;28;20053;-73
2022/03/07 06:10:32;;;;;;;8.77;5.88;;;1.00;99.90;;;;;;5034486;28;20108;-73
2022/03/07 06:12:58;;;;;;;10.98;6.20;;;0.90;99.90;;;;;;5036670;28;20430;-73
2022/03/07 06:15:24;;;;;;;14.98;6.68;;;0.90;99.90;;;;;;5039106;28;20032;-73
2022/03/07 06:17:54;;;;;;;9.35;5.82;;;0.90;99.90;;;;;;5033802;28;20085;-73
2022/03/07 06:20:21;;;;;;;10.60;6.13;;;1.00;99.90;;;;;;5042736;28;20029;-73
2022/03/07 06:22:47;;;;;;;11.20;5.88;;;1.00;99.90;;;;;;5036362;28;20035;-74
2022/03/07 06:25:13;;;;;;;12.73;6.32;;;1.00;99.90;;;;;;5037685;28;20029;-73
2022/03/07 06:27:39;;;;;;;8.23;6.45;;;1.00;99.90;;;;;;5031783;28;20025;-74
2022/03/07 06:30:05;;;;;;;7.80;6.00;;;1.00;99.90;;;;;;5037055;28;20705;-74
2022/03/07 06:32:31;;;;;;;10.98;6.25;;;1.10;99.90;;;;;;5038027;28;20033;-74
2022/03/07 06:34:57;;;;;;;8.73;5.90;;;1.10;99.90;;;;;;5039035;28;20040;-73
2022/03/07 06:37:24;;;;;;;8.45;5.57;;;1.10;99.90;;;;;;5045226;28;20037;-74
2022/03/07 06:39:49;;;;;;;8.38;5.40;;;1.10;99.90;;;;;;5043251;28;20485;-74
2022/03/07 06:42:15;;;;;;;7.18;5.53;;;1.10;99.90;;;;;;5044043;28;20031;-74
2022/03/07 06:44:40;;;;;;;10.57;5.78;;;1.20;99.90;;;;;;5038147;28;20501;-74
2022/03/07 06:47:09;;;;;;;8.38;5.65;;;1.20;99.90;;;;;;5045786;28;20044;-74
2022/03/07 06:49:35;;;;;;;8.50;5.75;;;1.30;99.90;;;;;;5045531;28;20037;-74
2022/03/07 06:52:02;;;;;;;10.90;5.90;;;1.30;99.90;;;;;;5042571;28;20055;-74
2022/03/07 06:54:28;;;;;;;8.32;5.50;;;1.30;99.90;;;;;;5036864;28;20033;-74
2022/03/07 06:56:54;;;;;;;10.60;5.38;;;1.30;99.90;;;;;;5043414;28;20035;-73
2022/03/07 06:59:20;;;;;;;9.18;5.70;;;1.40;99.90;;;;;;5038319;28;20636;-74
2022/03/07 07:01:46;;;;;;;6.47;5.38;;;1.40;99.90;;;;;;5042778;28;20025;-74
2022/03/07 07:04:12;;;;;;;9.02;5.97;;;1.50;99.90;;;;;;5033042;28;20022;-74
2022/03/07 07:06:37;;;;;;;9.60;5.68;;;1.50;99.90;;;;;;5040102;28;20029;-74
2022/03/07 07:09:03;;;;;;;9.25;5.88;;;1.50;99.90;;;;;;5039454;28;20091;-74
2022/03/07 07:11:29;;;;;;;8.38;5.80;;;1.50;99.90;;;;;;5038207;28;20072;-74
2022/03/07 07:13:54;;;;;;;9.00;5.90;;;1.60;99.90;;;;;;5030349;28;20024;-74
2022/03/07 07:16:20;;;;;;;7.85;5.50;;;1.60;99.90;;;;;;5036409;28;20098;-74
2022/03/07 07:18:46;;;;;;;7.75;5.70;;;1.60;99.90;;;;;;5043163;28;20480;-74
2022/03/07 07:21:11;;;;;;;9.00;5.55;;;1.60;99.90;;;;;;5042031;28;20037;-74
2022/03/07 07:23:37;;;;;;;7.32;5.30;;;1.70;99.90;;;;;;5038580;28;20017;-74
2022/03/07 07:26:04;;;;;;;7.18;5.65;;;1.70;99.90;;;;;;5043675;28;20542;-74
2022/03/07 07:28:30;;;;;;;7.93;5.50;;;1.70;99.90;;;;;;5036444;28;20041;-72
2022/03/07 07:30:55;;;;;;;7.85;5.55;;;1.80;99.90;;;;;;5042392;28;20087;-74
2022/03/07 07:33:21;;;;;;;9.55;5.22;;;1.80;99.90;;;;;;5038904;28;20392;-74
2022/03/07 07:35:46;;;;;;;7.65;5.55;;;1.90;99.90;;;;;;5041692;28;20546;-74
2022/03/07 07:38:13;;;;;;;7.93;5.57;;;1.90;99.90;;;;;;5040101;28;20028;-74
2022/03/07 07:40:39;;;;;;;8.20;5.15;;;2.00;99.90;;;;;;5035309;28;20013;-74
2022/03/07 07:43:05;;;;;;;11.45;5.68;;;2.00;99.90;;;;;;5040508;28;20055;-74
2022/03/07 07:45:31;;;;;;;6.88;5.10;;;2.00;99.90;;;;;;5039778;28;20033;-74
2022/03/07 07:48:00;;;;;;;9.70;4.82;;;2.00;99.90;;;;;;5033025;28;20447;-74
2022/03/07 07:50:27;;;;;;;11.27;5.43;;;2.00;99.90;;;;;;5045650;28;20029;-74
2022/03/07 07:52:54;;;;;;;8.63;5.15;;;2.00;99.90;;;;;;5037880;28;20029;-74
2022/03/07 07:55:20;;;;;;;10.15;5.60;;;2.00;99.90;;;;;;5039828;28;20059;-74
2022/03/07 07:57:46;;;;;;;6.97;5.20;;;2.00;99.90;;;;;;5042799;28;20033;-74
2022/03/07 08:00:15;;;;;;;9.60;5.20;;;2.00;99.90;;;;;;5042328;28;20082;-74
2022/03/07 08:02:42;;;;;;;7.95;5.30;;;2.00;99.90;;;;;;5034298;28;20029;-74
2022/03/07 08:05:08;;;;;;;10.15;5.50;;;2.10;99.90;;;;;;5046429;28;20358;-74
2022/03/07 08:07:39;;;;;;;7.15;5.10;;;2.10;99.90;;;;;;5044507;28;20535;-74
2022/03/07 08:10:05;;;;;;;9.35;5.32;;;2.10;99.90;;;;;;5033858;28;20030;-74
2022/03/07 08:12:30;;;;;;;6.22;4.72;;;2.20;99.90;;;;;;5036099;28;20044;-74
2022/03/07 08:14:56;;;;;;;7.93;5.47;;;2.20;99.90;;;;;;5040624;28;20037;-74
2022/03/07 08:17:22;;;;;;;7.38;4.85;;;2.20;99.90;;;;;;5042975;28;20045;-74
2022/03/07 08:19:47;;;;;;;8.68;5.10;;;2.30;99.90;;;;;;5035052;28;20437;-74
2022/03/07 08:22:13;;;;;;;6.88;4.50;;;2.40;99.90;;;;;;5042797;28;20270;-74
2022/03/07 08:24:39;;;;;;;5.95;4.60;;;2.50;99.90;;;;;;5038501;28;20944;-74
2022/03/07 08:27:04;;;;;;;6.55;4.70;;;2.60;99.90;;;;;;5042720;28;20029;-74
2022/03/07 08:29:30;;;;;;;6.20;4.35;;;2.70;99.90;;;;;;5038751;28;20028;-73
2022/03/07 08:31:56;;;;;;;8.30;4.78;;;2.80;99.90;;;;;;5035313;28;20029;-75
2022/03/07 08:34:21;;;;;;;5.93;4.60;;;2.80;99.90;;;;;;5036846;28;20024;-75
2022/03/07 08:36:47;;;;;;;6.60;4.43;;;2.90;99.90;;;;;;5041575;28;20064;-76
2022/03/07 08:39:13;;;;;;;6.93;4.43;;;2.90;99.90;;;;;;5039118;28;20456;-75
2022/03/07 08:41:38;;;;;;;8.40;4.47;;;3.00;99.90;;;;;;5034655;28;20033;-77
2022/03/07 08:44:04;;;;;;;6.68;4.40;;;2.90;99.90;;;;;;5030262;28;20115;-75
2022/03/07 08:46:29;;;;;;;7.18;4.97;;;3.00;99.90;;;;;;5040027;28;20033;-75
2022/03/07 08:48:55;;;;;;;8.98;4.35;;;3.10;99.90;;;;;;5045804;28;20512;-74
2022/03/07 08:51:21;;;;;;;6.28;4.43;;;3.20;99.90;;;;;;5042484;28;20500;-74
2022/03/07 08:53:46;;;;;;;7.55;4.50;;;3.30;99.90;;;;;;5042672;28;20147;-74
2022/03/07 08:56:13;;;;;;;7.50;4.85;;;3.30;99.90;;;;;;5042599;28;20059;-74
2022/03/07 08:58:39;;;;;;;7.80;4.60;;;3.40;99.90;;;;;;5056618;28;20397;-73
2022/03/07 09:01:04;;;;;;;8.18;4.53;;;3.40;99.90;;;;;;5036886;28;20138;-74
2022/03/07 09:03:30;;;;;;;10.45;4.57;;;3.50;99.90;;;;;;5023855;28;20044;-74
2022/03/07 09:05:55;;;;;;;8.43;5.05;;;3.60;99.90;;;;;;5039376;28;20025;-74
2022/03/07 09:08:21;;;;;;;5.95;4.22;;;3.70;99.90;;;;;;5044657;28;20110;-75
2022/03/07 09:10:47;;;;;;;7.25;4.38;;;3.80;99.90;;;;;;5040539;28;20040;-75
2022/03/07 09:13:12;;;;;;;8.23;4.65;;;3.90;99.90;;;;;;5038590;28;20540;-74
2022/03/07 09:15:39;;;;;;;7.45;4.80;;;3.90;99.90;;;;;;5034174;28;20490;-74
2022/03/07 09:18:05;;;;;;;5.63;4.35;;;3.90;99.90;;;;;;5041905;28;21302;-74
2022/03/07 09:20:30;;;;;;;6.75;4.60;;;4.00;99.90;;;;;;5045505;28;20511;-74
2022/03/07 09:22:56;;;;;;;6.28;3.85;;;4.00;99.90;;;;;;5035730;28;20435;-73
2022/03/07 09:25:22;;;;;;;5.22;3.40;;;3.90;99.90;;;;;;5041445;28;20482;-73
2022/03/07 09:27:49;;;;;;;5.32;3.83;;;3.90;99.90;;;;;;5041155;28;20029;-73
2022/03/07 09:30:15;;;;;;;8.45;4.45;;;4.00;99.90;;;;;;5035843;28;20044;-74
2022/03/07 09:32:42;;;;;;;4.30;3.30;;;4.10;99.90;;;;;;5038514;28;20059;-74
2022/03/07 09:35:08;;;;;;;4.47;3.10;;;4.10;99.90;;;;;;5042826;28;20030;-73
2022/03/07 09:37:34;;;;;;;4.35;3.10;;;4.00;99.60;;;;;;5046792;28;20032;-74
2022/03/07 09:40:00;;;;;;;4.25;3.05;;;3.90;99.70;;;;;;5047508;28;20025;-74
2022/03/07 09:42:26;;;;;;;4.75;2.95;;;4.00;99.90;;;;;;5043835;28;20373;-73
2022/03/07 09:44:54;;;;;;;5.50;3.15;;;4.00;98.00;;;;;;5042980;28;20037;-74
2022/03/07 09:47:21;;;;;;;4.18;3.28;;;4.20;97.40;;;;;;5047363;28;20040;-74
2022/03/07 09:49:49;;;;;;;6.18;3.30;;;4.20;98.90;;;;;;5056520;28;20187;-75
2022/03/07 09:52:15;;;;;;;4.80;2.80;;;4.20;98.20;;;;;;5046558;28;20342;-73
2022/03/07 09:54:41;;;;;;;5.47;2.90;;;4.30;98.30;;;;;;5040049;28;20033;-75
2022/03/07 09:57:06;;;;;;;4.07;2.75;;;4.30;97.50;;;;;;5045917;28;20033;-75
2022/03/07 09:59:34;;;;;;;5.47;2.72;;;4.30;95.80;;;;;;5039699;28;20029;-74
2022/03/07 10:02:02;;;;;;;4.30;2.88;;;4.30;95.30;;;;;;5041897;28;20106;-73
2022/03/07 10:04:30;;;;;;;4.43;3.25;;;4.40;96.60;;;;;;5037363;28;20353;-75
2022/03/07 10:06:55;;;;;;;3.97;3.03;;;4.50;95.20;;;;;;5048188;28;20504;-75
2022/03/07 10:09:25;;;;;;;4.40;2.95;;;4.40;95.60;;;;;;5040997;28;20033;-75
2022/03/07 10:11:55;;;;;;;4.15;3.20;;;4.40;96.00;;;;;;5033631;28;20060;-75
2022/03/07 10:14:42;;;;;;;7.63;3.30;;;4.50;96.40;;;;;;5041616;28;20057;-75
2022/03/07 10:17:26;;;;;;;4.72;3.08;;;4.40;95.70;;;;;;5039270;28;20068;-75
2022/03/07 10:19:54;;;;;;;5.25;3.35;;;4.30;96.90;;;;;;5042869;28;20473;-74
2022/03/07 10:22:22;;;;;;;3.67;3.13;;;4.40;96.90;;;;;;5042391;28;20025;-74
2022/03/07 10:25:00;;;;;;;5.13;3.10;;;4.50;95.70;;;;;;5035899;28;20060;-74
2022/03/07 10:27:28;;;;;;;5.63;3.17;;;4.70;94.20;;;;;;5027195;28;20033;-75
2022/03/07 10:29:54;;;;;;;3.13;2.80;;;4.80;95.20;;;;;;5043582;28;20036;-75
2022/03/07 10:32:20;;;;;;;3.08;2.60;;;4.80;95.50;;;;;;5038146;28;20021;-74
2022/03/07 10:34:46;;;;;;;3.88;2.90;;;4.90;92.90;;;;;;5045019;28;20036;-75
2022/03/07 10:37:12;;;;;;;2.70;2.50;;;4.90;92.60;;;;;;5043276;28;20043;-75
2022/03/07 10:39:45;;;;;;;5.88;2.72;;;5.00;92.70;;;;;;5043215;28;20412;-75
2022/03/07 10:42:19;;;;;;;3.67;2.78;;;5.20;91.70;;;;;;5030047;28;20533;-77
2022/03/07 10:44:45;;;;;;;4.32;2.95;;;5.10;92.30;;;;;;5039207;28;20559;-75
2022/03/07 10:47:17;;;;;;;4.68;3.10;;;5.10;92.30;;;;;;5042355;28;20029;-75
2022/03/07 10:49:54;;;;;;;4.30;3.03;;;5.10;91.00;;;;;;5043800;28;20021;-75
2022/03/07 10:52:24;;;;;;;4.18;2.88;;;5.20;91.00;;;;;;5043218;28;20033;-74
2022/03/07 10:54:51;;;;;;;3.78;2.30;;;5.40;90.70;;;;;;5035185;28;20519;-74
2022/03/07 10:57:18;;;;;;;4.68;2.45;;;5.60;89.00;;;;;;5052321;28;20032;-75
2022/03/07 10:59:44;;;;;;;3.83;2.60;;;5.70;87.10;;;;;;5047056;28;20063;-75
2022/03/07 11:02:14;;;;;;;3.03;2.47;;;5.70;85.20;;;;;;5041708;28;20029;-74
2022/03/07 11:04:41;;;;;;;2.65;2.20;;;5.80;84.40;;;;;;5035001;28;20040;-74
2022/03/07 11:07:08;;;;;;;3.80;2.75;;;5.80;83.10;;;;;;5036710;28;20545;-75
2022/03/07 11:09:35;;;;;;;4.15;2.25;;;5.80;83.50;;;;;;5041115;28;20049;-75
2022/03/07 11:12:03;;;;;;;3.08;2.47;;;5.90;83.80;;;;;;5032483;28;20061;-75
2022/03/07 11:14:29;;;;;;;3.15;2.40;;;5.80;83.50;;;;;;5041176;28;20052;-75
2022/03/07 11:16:58;;;;;;;6.05;2.85;;;5.70;86.30;;;;;;5032448;28;20055;-75
2022/03/07 11:19:26;;;;;;;3.97;2.58;;;5.80;85.70;;;;;;5042364;28;20025;-75
2022/03/07 11:21:53;;;;;;;4.22;2.60;;;5.90;88.50;;;;;;5038774;28;20063;-75
2022/03/07 11:24:21;;;;;;;6.95;2.42;;;6.00;87.70;;;;;;5043692;28;20021;-75
2022/03/07 11:26:47;;;;;;;3.60;2.38;;;6.10;83.90;;;;;;5037789;28;20033;-74
2022/03/07 11:29:14;;;;;;;2.70;2.20;;;6.00;85.00;;;;;;5035666;28;20075;-76
2022/03/07 11:31:40;;;;;;;4.47;2.22;;;5.90;81.70;;;;;;5043915;28;20393;-73
2022/03/07 11:34:08;;;;;;;5.00;2.75;;;5.90;82.10;;;;;;5037792;28;20231;-73
2022/03/07 11:36:37;;;;;;;4.22;2.95;;;5.90;83.90;;;;;;5041435;28;20418;-74
2022/03/07 11:39:05;;;;;;;3.97;2.60;;;6.00;83.40;;;;;;5036903;28;20512;-73
2022/03/07 11:41:33;;;;;;;6.22;2.67;;;6.10;83.10;;;;;;5032514;28;20029;-72
2022/03/07 11:44:01;;;;;;;3.53;2.53;;;6.20;83.40;;;;;;5031484;28;20045;-72
2022/03/07 11:46:29;;;;;;;3.70;2.70;;;6.20;78.70;;;;;;5035567;28;20056;-72
2022/03/07 11:48:55;;;;;;;3.00;2.40;;;6.20;82.90;;;;;;5036699;28;20109;-72
2022/03/07 11:51:26;;;;;;;3.15;2.35;;;6.20;80.70;;;;;;5036054;28;20036;-72
2022/03/07 11:53:54;;;;;;;4.78;2.40;;;6.20;81.10;;;;;;5042775;28;21569;-72
2022/03/07 11:56:32;;;;;;;6.47;2.30;;;6.20;78.80;;;;;;5040417;28;20048;-72
2022/03/07 11:59:00;;;;;;;3.33;2.40;;;6.40;76.80;;;;;;5040698;28;20025;-72
2022/03/07 12:01:28;;;;;;;4.50;2.20;;;6.50;77.90;;;;;;5039158;28;20025;-72
2022/03/07 12:03:54;;;;;;;3.08;2.50;;;6.50;76.00;;;;;;5038626;28;20440;-72
2022/03/07 12:06:21;;;;;;;3.95;2.30;;;6.60;77.20;;;;;;5041172;28;20064;-73
2022/03/07 12:08:53;;;;;;;4.32;2.20;;;6.50;76.70;;;;;;5027939;28;20782;-72
2022/03/07 12:11:31;;;;;;;3.35;2.38;;;6.50;73.30;;;;;;5041148;28;20029;-73
2022/03/07 12:14:03;;;;;;;3.85;2.60;;;6.60;75.50;;;;;;5032751;28;20044;-73
2022/03/07 12:16:41;;;;;;;3.42;2.50;;;6.60;76.70;;;;;;5036421;28;20450;-72
2022/03/07 12:19:10;;;;;;;4.53;2.30;;;6.60;74.50;;;;;;4334936;28;10021652;-72
2022/03/07 12:21:38;;;;;;;3.20;2.42;;;6.60;75.30;;;;;;5026759;28;20264;-72
2022/03/07 12:24:07;;;;;;;4.25;2.70;;;6.70;76.40;;;;;;5024726;28;20018;-72
2022/03/07 12:26:43;;;;;;;4.40;2.60;;;6.80;74.50;;;;;;5031621;28;20033;-73
2022/03/07 12:29:08;;;;;;;3.17;2.50;;;6.90;76.80;;;;;;5032111;28;20085;-73
2022/03/07 12:31:34;;;;;;;4.78;2.80;;;6.80;76.00;;;;;;5019805;28;20040;-73
2022/03/07 12:34:00;;;;;;;3.80;2.92;;;6.80;76.90;;;;;;5027965;28;20039;-73
2022/03/07 12:36:26;;;;;;;4.00;2.83;;;6.70;78.60;;;;;;5034106;28;20036;-73
2022/03/07 12:38:55;;;;;;;3.20;2.90;;;6.70;76.60;;;;;;5027517;28;20025;-73
2022/03/07 12:41:34;;;;;;;3.88;2.95;;;6.70;75.10;;;;;;5030924;28;20068;-74
2022/03/07 12:44:00;;;;;;;6.80;3.30;;;6.70;75.80;;;;;;5026683;28;20050;-74
2022/03/07 12:46:27;;;;;;;3.95;2.75;;;6.80;77.30;;;;;;5027084;28;20124;-73
2022/03/07 12:48:55;;;;;;;4.25;3.22;;;7.00;72.10;;;;;;5020324;28;20029;-72
2022/03/07 12:51:22;;;;;;;4.97;3.13;;;7.10;76.60;;;;;;5032967;28;20025;-72